createdAt,value
2019-05-09T00:27:23.885Z,100834.33
2019-05-09T00:41:39.966Z,100812.23
2019-05-09T01:10:25.250Z,100787.70
2019-05-09T01:32:07.743Z,100768.28
2019-05-09T01:37:09.704Z,100756.83
2019-05-09T01:59:57.219Z,100722.22
2019-05-09T02:05:39.527Z,100712.28
2019-05-09T02:10:58.704Z,100713.30
2019-05-09T02:16:48.715Z,100704.17
2019-05-09T02:22:54.285Z,100689.59
2019-05-09T02:37:58.891Z,100669.38
2019-05-09T03:29:35.436Z,100628.84
2019-05-09T03:38:17.905Z,100617.39
2019-05-09T03:51:58.612Z,100617.98
2019-05-09T04:57:51.293Z,100561.22
2019-05-09T05:30:10.372Z,100542.75
2019-05-09T05:43:40.536Z,100546.89
2019-05-09T05:49:39.887Z,100535.00
2019-05-09T05:56:28.829Z,100545.73
2019-05-09T06:13:07.963Z,100525.51
2019-05-09T06:15:41.639Z,100525.13
2019-05-09T06:18:24.513Z,100529.77
2019-05-09T06:20:58.452Z,100532.77
2019-05-09T06:27:28.113Z,100531.87
2019-05-09T06:30:01.067Z,100533.16
2019-05-09T06:32:35.103Z,100533.21
2019-05-09T06:45:48.652Z,100536.23
2019-05-09T06:48:22.588Z,100525.67
2019-05-09T06:54:48.718Z,100531.05
2019-05-09T06:57:20.030Z,100518.91
2019-05-09T06:59:57.891Z,100522.81
2019-05-09T07:02:51.340Z,100520.12
2019-05-09T07:05:29.097Z,100515.05
2019-05-09T07:08:11.720Z,100526.20
2019-05-09T07:10:45.387Z,100521.30
2019-05-09T07:13:23.227Z,100525.52
2019-05-09T07:15:54.429Z,100520.84
2019-05-09T07:18:27.751Z,100521.17
2019-05-09T07:21:00.628Z,100524.58
2019-05-09T07:23:33.284Z,100514.37
2019-05-09T07:26:17.684Z,100520.27
2019-05-09T07:28:49.394Z,100519.72
2019-05-09T07:31:22.142Z,100519.72
2019-05-09T07:33:58.752Z,100529.68
2019-05-09T07:36:30.105Z,100523.61
2019-05-09T07:39:02.961Z,100521.09
2019-05-09T07:41:39.447Z,100521.00
2019-05-09T07:44:10.636Z,100525.45
2019-05-09T07:46:43.329Z,100525.86
2019-05-09T07:49:14.565Z,100512.63
2019-05-09T07:51:47.635Z,100516.73
2019-05-09T07:54:25.212Z,100522.99
2019-05-09T07:56:52.768Z,100511.53
2019-05-09T07:59:23.865Z,100510.17
2019-05-09T08:01:54.909Z,100500.31
2019-05-09T08:04:28.562Z,100503.12
2019-05-09T08:07:02.899Z,100501.09
2019-05-09T08:09:34.063Z,100503.16
2019-05-09T08:12:07.370Z,100496.80
2019-05-09T08:14:39.645Z,100493.35
2019-05-09T08:17:18.246Z,100497.45
2019-05-09T08:19:53.200Z,100502.53
2019-05-09T08:22:31.806Z,100501.55
2019-05-09T08:25:08.233Z,100494.81
2019-05-09T08:27:38.770Z,100494.81
2019-05-09T08:55:57.886Z,100486.59
2019-05-09T09:02:21.864Z,100474.23
2019-05-09T09:08:02.657Z,100465.92
2019-05-09T09:34:31.981Z,100430.70
2019-05-09T09:40:47.591Z,100438.34
2019-05-09T09:50:38.410Z,100431.73
2019-05-09T09:53:34.003Z,100422.83
2019-05-09T09:56:05.135Z,100427.22
2019-05-09T09:58:38.980Z,100423.03
2019-05-09T10:01:11.825Z,100431.02
2019-05-09T10:04:20.797Z,100420.34
2019-05-09T10:06:58.236Z,100413.78
2019-05-09T10:09:33.883Z,100430.08
2019-05-09T10:12:18.051Z,100424.61
2019-05-09T10:18:47.529Z,100423.30
2019-05-09T10:29:57.795Z,100409.27
2019-05-09T10:32:33.745Z,100408.23
2019-05-09T10:50:43.141Z,100381.36
2019-05-09T10:57:53.589Z,100375.50
2019-05-09T11:15:13.108Z,100370.28
2019-05-09T11:18:08.379Z,100390.83
2019-05-09T11:24:46.564Z,100377.20
2019-05-09T11:27:22.801Z,100381.86
2019-05-09T11:33:34.922Z,100372.41
2019-05-09T11:36:09.720Z,100376.06
2019-05-09T11:42:38.955Z,100383.71
2019-05-09T11:49:08.192Z,100384.48
2019-05-09T11:55:27.479Z,100378.33
2019-05-09T12:05:13.204Z,100374.32
2019-05-09T12:07:42.427Z,100373.47
2019-05-09T12:13:26.743Z,100368.17
2019-05-09T12:16:01.186Z,100363.06
2019-05-09T12:19:03.606Z,100361.08
2019-05-09T12:21:19.629Z,100372.95
2019-05-09T12:23:53.545Z,100374.20
2019-05-09T12:26:24.613Z,100366.92
2019-05-09T12:28:57.775Z,100365.99
2019-05-09T12:31:30.167Z,100359.84
2019-05-09T12:34:03.712Z,100354.57
2019-05-09T12:36:35.706Z,100363.11
2019-05-09T12:39:08.725Z,100357.29
2019-05-09T12:41:42.087Z,100361.30
2019-05-09T12:44:13.183Z,100366.47
2019-05-09T12:46:45.547Z,100360.23
2019-05-09T12:49:22.209Z,100368.28
2019-05-09T12:51:58.861Z,100367.34
2019-05-09T12:54:34.516Z,100366.08
2019-05-09T12:57:07.926Z,100358.72
2019-05-09T12:59:48.573Z,100364.92
2019-05-09T13:02:11.355Z,100368.44
2019-05-09T13:04:42.408Z,100365.48
2019-05-09T13:07:14.309Z,100353.77
2019-05-09T13:09:52.238Z,100359.67
2019-05-09T13:12:43.079Z,100355.30
2019-05-09T13:15:21.477Z,100360.82
2019-05-09T13:17:52.595Z,100364.10
2019-05-09T13:20:23.662Z,100352.68
2019-05-09T13:22:58.847Z,100355.30
2019-05-09T13:25:30.294Z,100354.86
2019-05-09T13:28:01.776Z,100357.65
2019-05-09T13:30:34.521Z,100359.35
2019-05-09T13:33:10.562Z,100363.16
2019-05-09T13:35:41.416Z,100366.64
2019-05-09T13:38:13.406Z,100366.23
2019-05-09T13:40:53.449Z,100369.98
2019-05-09T13:43:20.447Z,100363.11
2019-05-09T13:45:51.583Z,100361.70
2019-05-09T13:48:37.837Z,100372.14
2019-05-09T13:51:00.814Z,100359.77
2019-05-09T13:53:33.579Z,100366.67
2019-05-09T13:56:04.691Z,100375.19
2019-05-09T13:58:38.286Z,100369.06
2019-05-09T14:01:09.832Z,100368.34
2019-05-09T14:03:40.884Z,100372.08
2019-05-09T14:06:11.984Z,100371.08
2019-05-09T14:08:43.934Z,100362.34
2019-05-09T14:11:19.220Z,100358.02
2019-05-09T14:13:48.734Z,100353.78
2019-05-09T14:16:28.698Z,100357.56
2019-05-09T14:19:23.972Z,100366.85
2019-05-09T14:21:32.922Z,100366.77
2019-05-09T14:24:15.178Z,100365.84
2019-05-09T14:26:44.005Z,100364.46
2019-05-09T14:29:20.123Z,100373.39
2019-05-09T14:31:51.842Z,100370.98
2019-05-09T14:34:22.066Z,100368.56
2019-05-09T14:36:53.163Z,100374.42
2019-05-09T14:39:27.678Z,100385.08
2019-05-09T14:41:58.926Z,100387.00
2019-05-09T14:44:31.524Z,100388.68
2019-05-09T14:47:02.636Z,100385.61
2019-05-09T14:49:43.287Z,100379.42
2019-05-09T14:52:08.108Z,100378.03
2019-05-09T14:54:42.613Z,100385.11
2019-05-09T14:57:17.374Z,100382.44
2019-05-09T14:59:48.041Z,100382.87
2019-05-09T15:02:19.092Z,100387.30
2019-05-09T15:04:50.186Z,100390.38
2019-05-09T15:07:21.341Z,100389.10
2019-05-09T15:09:54.025Z,100392.41
2019-05-09T15:12:28.502Z,100387.92
2019-05-09T15:14:59.889Z,100388.12
2019-05-09T15:17:32.608Z,100396.34
2019-05-09T15:20:04.718Z,100396.87
2019-05-09T15:22:38.719Z,100397.00
2019-05-09T15:25:12.056Z,100405.37
2019-05-09T15:27:44.271Z,100407.03
2019-05-09T15:30:18.859Z,100412.10
2019-05-09T15:32:51.807Z,100407.23
2019-05-09T15:35:22.577Z,100415.08
2019-05-09T15:37:53.639Z,100411.61
2019-05-09T15:40:28.198Z,100413.94
2019-05-09T15:43:04.018Z,100405.25
2019-05-09T15:45:40.896Z,100414.84
2019-05-09T15:48:09.531Z,100422.17
2019-05-09T15:50:42.314Z,100422.09
2019-05-09T15:53:13.541Z,100427.73
2019-05-09T15:55:58.888Z,100425.52
2019-05-09T15:58:31.575Z,100427.08
2019-05-09T16:01:04.371Z,100424.22
2019-05-09T16:03:38.899Z,100422.58
2019-05-09T16:06:12.428Z,100418.98
2019-05-09T16:08:43.534Z,100416.33
2019-05-09T16:11:18.483Z,100416.98
2019-05-09T16:13:49.757Z,100410.27
2019-05-09T16:16:21.222Z,100409.22
2019-05-09T16:18:52.274Z,100420.03
2019-05-09T16:21:24.759Z,100420.20
2019-05-09T16:23:59.978Z,100414.88
2019-05-09T16:26:37.573Z,100424.97
2019-05-09T16:29:05.369Z,100427.63
2019-05-09T16:31:38.768Z,100426.80
2019-05-09T16:34:12.760Z,100424.05
2019-05-09T16:36:52.653Z,100423.95
2019-05-09T16:39:20.452Z,100419.25
2019-05-09T16:41:54.724Z,100422.25
2019-05-09T16:44:25.867Z,100416.31
2019-05-09T16:47:04.422Z,100422.34
2019-05-09T16:49:32.476Z,100420.58
2019-05-09T16:52:03.757Z,100416.94
2019-05-09T16:54:38.623Z,100422.25
2019-05-09T16:57:13.184Z,100421.63
2019-05-09T16:59:47.764Z,100413.17
2019-05-09T17:02:24.798Z,100419.06
2019-05-09T17:05:02.696Z,100416.78
2019-05-09T17:07:34.907Z,100416.31
2019-05-09T17:13:49.782Z,100416.94
2019-05-09T17:16:28.487Z,100415.72
2019-05-09T17:19:06.037Z,100414.30
2019-05-09T17:21:50.663Z,100418.62
2019-05-09T17:28:13.037Z,100428.23
2019-05-09T17:30:49.341Z,100422.83
2019-05-09T17:33:21.231Z,100432.98
2019-05-09T17:35:57.819Z,100436.87
2019-05-09T17:38:32.662Z,100432.66
2019-05-09T17:41:08.452Z,100437.02
2019-05-09T17:43:39.727Z,100438.11
2019-05-09T17:46:12.730Z,100429.97
2019-05-09T17:48:49.075Z,100429.25
2019-05-09T17:51:33.058Z,100425.89
2019-05-09T17:53:58.563Z,100423.84
2019-05-09T17:56:50.028Z,100424.33
2019-05-09T17:59:11.481Z,100429.39
2019-05-09T18:01:48.246Z,100429.63
2019-05-09T18:04:22.414Z,100426.73
2019-05-09T18:07:00.801Z,100434.09
2019-05-09T18:09:42.276Z,100429.50
2019-05-09T18:12:22.520Z,100427.34
2019-05-09T18:14:55.340Z,100435.66
2019-05-09T18:17:40.544Z,100434.91
2019-05-09T18:20:17.415Z,100440.70
2019-05-09T18:22:52.195Z,100442.50
2019-05-09T18:29:06.832Z,100437.08
2019-05-09T18:31:41.800Z,100436.09
2019-05-09T18:34:18.484Z,100439.73
2019-05-09T18:36:58.611Z,100448.42
2019-05-09T18:39:30.870Z,100446.36
2019-05-09T18:42:05.014Z,100442.52
2019-05-09T18:44:39.972Z,100442.52
2019-05-09T18:47:13.315Z,100444.33
2019-05-09T18:49:56.450Z,100447.70
2019-05-09T18:52:25.995Z,100443.47
2019-05-09T18:55:01.214Z,100439.22
2019-05-09T18:57:43.939Z,100446.68
2019-05-09T19:00:46.066Z,100439.95
2019-05-09T19:03:16.705Z,100442.80
2019-05-09T19:07:19.940Z,100442.89
2019-05-09T19:08:42.738Z,100436.82
2019-05-09T19:11:16.690Z,100433.19
2019-05-09T19:14:04.437Z,100439.59
2019-05-09T19:19:32.500Z,100435.29
2019-05-09T19:25:09.802Z,100443.20
2019-05-09T19:27:58.046Z,100439.22
2019-05-09T19:33:09.786Z,100439.01
2019-05-09T19:35:46.143Z,100431.94
2019-05-09T19:38:29.672Z,100436.29
2019-05-09T19:43:31.003Z,100429.34
2019-05-09T19:46:03.778Z,100437.02
2019-05-09T19:48:52.472Z,100434.58
2019-05-09T19:51:25.890Z,100431.81
2019-05-09T19:53:53.642Z,100431.47
2019-05-09T19:56:36.380Z,100435.56
2019-05-09T19:59:20.299Z,100434.72
2019-05-09T20:02:13.872Z,100442.11
2019-05-09T20:04:26.800Z,100433.58
2019-05-09T20:07:07.914Z,100433.41
2019-05-09T20:09:58.790Z,100434.52
2019-05-09T20:12:37.541Z,100433.78
2019-05-09T20:15:42.749Z,100430.55
2019-05-09T20:17:47.753Z,100432.98
2019-05-09T20:20:26.104Z,100438.42
2019-05-09T20:23:07.761Z,100438.80
2019-05-09T20:29:19.754Z,100436.88
2019-05-09T20:31:59.527Z,100440.61
2019-05-09T20:34:35.753Z,100443.64
2019-05-09T20:37:26.362Z,100445.31
2019-05-09T20:39:46.182Z,100441.94
2019-05-09T20:42:36.449Z,100439.48
2019-05-09T20:44:58.556Z,100442.45
2019-05-09T20:47:31.369Z,100439.28
2019-05-09T20:50:07.292Z,100436.84
2019-05-09T20:52:45.992Z,100446.84
2019-05-09T20:55:27.694Z,100449.66
2019-05-09T20:58:12.847Z,100445.63
2019-05-09T21:02:08.780Z,100452.22
2019-05-09T21:03:22.764Z,100445.34
2019-05-09T21:05:58.348Z,100440.69
2019-05-09T21:08:38.004Z,100447.02
2019-05-09T21:11:08.750Z,100442.95
2019-05-09T21:13:48.966Z,100441.48
2019-05-09T21:19:04.517Z,100441.88
2019-05-09T21:19:39.024Z,100439.03
2019-05-09T21:21:43.003Z,100448.87
2019-05-09T21:24:19.210Z,100439.23
2019-05-09T21:26:53.581Z,100441.92
2019-05-09T21:29:29.706Z,100433.41
2019-05-09T21:32:09.446Z,100436.02
2019-05-09T21:49:26.724Z,100425.48
2019-05-09T21:51:57.949Z,100429.33
2019-05-09T21:54:30.367Z,100439.55
2019-05-09T22:51:36.312Z,100457.88
